Time;durP1;ratioP1;P1;durP2;ratioP2;P2;SDS_P1;SDS_P2;PMS_P1;PMS_P2;Temp;Humidity;BMP_temperature;BMP_pressure;BME280_temperature;BME280_humidity;BME280_pressure;Samples;Min_cycle;Max_cycle;Signal;HPM_P1;HPM_P2
2023/02/24 00:04:50;;;;;;;39.33;5.63;;;;;;;3.86;82.26;100254.00;10136427;29;20079;-80
2023/02/24 00:09:54;;;;;;;33.42;5.60;;;;;;;3.75;82.53;100250.22;10138545;29;20044;-80
2023/02/24 00:14:57;;;;;;;29.33;5.47;;;;;;;3.69;82.47;100243.44;10149572;29;20555;-80
2023/02/24 00:20:00;;;;;;;30.25;5.25;;;;;;;3.72;82.85;100241.47;10152253;29;20051;-80
2023/02/24 00:25:05;;;;;;;29.02;5.43;;;;;;;3.76;82.72;100235.97;10153721;29;20067;-81
2023/02/24 00:30:10;;;;;;;34.45;5.80;;;;;;;3.58;82.76;100224.59;10162346;29;20104;-80
2023/02/24 00:35:14;;;;;;;45.80;6.63;;;;;;;3.33;83.14;100223.25;10141355;29;20052;-79
2023/02/24 00:40:22;;;;;;;26.25;5.68;;;;;;;3.41;83.48;100223.69;10159282;29;20471;-80
2023/02/24 00:45:25;;;;;;;35.30;7.10;;;;;;;3.44;83.39;100210.25;10148233;29;20052;-80
2023/02/24 00:50:27;;;;;;;30.20;5.43;;;;;;;3.60;83.57;100207.63;10154007;29;20281;-80
2023/02/24 00:55:35;;;;;;;38.47;5.95;;;;;;;3.61;83.53;100195.19;10143923;29;20508;-80
2023/02/24 01:00:38;;;;;;;32.30;6.07;;;;;;;3.69;83.94;100198.28;10157116;29;20515;-80
2023/02/24 01:05:41;;;;;;;39.72;6.75;;;;;;;3.64;83.71;100192.34;10142580;29;20056;-80
2023/02/24 01:12:00;;;;;;;33.30;5.78;;;;;;;3.56;83.50;100192.78;10142192;29;20535;-80
2023/02/24 01:16:08;;;;;;;30.92;6.07;;;;;;;3.47;83.45;100186.19;10156114;29;20072;-80
2023/02/24 01:21:13;;;;;;;29.88;7.03;;;;;;;3.47;83.50;100185.31;10140185;29;20131;-80
2023/02/24 01:26:19;;;;;;;29.55;5.90;;;;;;;3.56;83.18;100179.50;10144191;29;20582;-80
2023/02/24 01:31:23;;;;;;;40.25;5.50;;;;;;;3.41;83.25;100167.06;10158549;29;20052;-80
2023/02/24 01:36:27;;;;;;;26.70;6.35;;;;;;;3.24;83.82;100160.88;10160093;29;20052;-81
2023/02/24 01:41:31;;;;;;;30.35;5.85;;;;;;;3.58;82.69;100147.56;10162839;29;20469;-80
2023/02/24 01:46:37;;;;;;;22.48;5.72;;;;;;;3.33;82.60;100151.56;10132427;29;20123;-80
2023/02/24 01:51:44;;;;;;;33.70;5.57;;;;;;;3.06;83.67;100140.63;10144284;29;20076;-80
2023/02/24 01:56:49;;;;;;;35.25;5.38;;;;;;;3.48;81.93;100126.81;10150769;29;20072;-80
2023/02/24 02:01:57;;;;;;;37.05;6.15;;;;;;;3.47;81.30;100116.28;10154868;29;20071;-80
2023/02/24 02:07:01;;;;;;;22.75;4.43;;;;;;;3.08;81.54;100117.53;10156181;29;20044;-80
2023/02/24 02:12:08;;;;;;;29.60;4.68;;;;;;;3.42;80.74;100102.41;10138294;29;20040;-79
2023/02/24 02:17:17;;;;;;;34.65;4.82;;;;;;;3.41;80.61;100090.91;10140684;29;20052;-80
2023/02/24 02:22:52;;;;;;;25.00;4.93;;;;;;;3.44;80.51;100090.75;10159366;29;20082;-79
2023/02/24 02:28:19;;;;;;;26.83;5.15;;;;;;;3.38;80.36;100085.78;10140392;29;20444;-80
2023/02/24 02:34:04;;;;;;;21.98;3.72;;;;;;;3.20;80.58;100078.84;10140688;29;20071;-80
2023/02/24 02:39:15;;;;;;;17.05;4.07;;;;;;;3.24;80.48;100061.81;10119436;29;20508;-79
2023/02/24 02:44:22;;;;;;;28.23;3.88;;;;;;;3.41;80.16;100063.53;10145946;29;20357;-80
2023/02/24 02:49:32;;;;;;;23.35;3.33;;;;;;;3.12;79.17;100055.38;10153712;29;20111;-80
2023/02/24 02:54:44;;;;;;;21.65;3.55;;;;;;;3.00;78.83;100051.59;10156093;29;20077;-80
2023/02/24 02:59:53;;;;;;;23.85;3.25;;;;;;;2.88;78.43;100040.78;10154250;29;20053;-79
2023/02/24 03:05:01;;;;;;;23.48;3.25;;;;;;;2.80;77.63;100044.72;10144585;29;20100;-80
2023/02/24 03:10:16;;;;;;;16.10;2.83;;;;;;;2.85;77.54;100031.19;10144196;29;20039;-80
2023/02/24 03:15:22;;;;;;;19.83;3.45;;;;;;;2.82;75.87;100034.03;10136632;29;20052;-80
2023/02/24 03:20:31;;;;;;;14.20;3.03;;;;;;;2.14;74.68;100020.84;10142610;29;20508;-80
2023/02/24 03:25:43;;;;;;;12.75;2.42;;;;;;;2.35;74.24;100018.84;10120845;29;20048;-80
2023/02/24 03:30:56;;;;;;;21.30;2.55;;;;;;;2.10;72.81;100027.22;10140767;29;20580;-80
2023/02/24 03:36:01;;;;;;;12.27;2.20;;;;;;;1.72;73.09;100011.47;10153641;29;20075;-81
2023/02/24 03:41:09;;;;;;;16.63;2.85;;;;;;;2.12;73.52;100010.28;10134868;29;20051;-80
2023/02/24 03:46:15;;;;;;;12.38;2.63;;;;;;;2.22;72.74;100001.84;10157161;29;20052;-80
2023/02/24 03:51:23;;;;;;;15.13;2.60;;;;;;;2.01;73.20;100002.06;10153050;29;20060;-80
2023/02/24 03:56:40;;;;;;;12.75;2.42;;;;;;;1.70;73.72;100006.25;10154897;29;20048;-80
2023/02/24 04:01:54;;;;;;;18.15;2.80;;;;;;;2.21;73.60;100001.00;10156269;29;20052;-81
2023/02/24 04:07:03;;;;;;;9.93;2.95;;;;;;;1.78;73.78;100000.56;10139422;29;20064;-81
2023/02/24 04:12:14;;;;;;;13.30;2.42;;;;;;;1.97;73.39;99999.63;10164364;29;20066;-80
2023/02/24 04:17:22;;;;;;;13.57;2.35;;;;;;;1.90;73.88;99994.66;10144919;29;20138;-80
2023/02/24 04:22:31;;;;;;;13.63;3.10;;;;;;;1.73;73.73;99987.56;10134498;29;20135;-80
2023/02/24 04:27:35;;;;;;;11.18;3.40;;;;;;;1.70;74.70;99984.19;10168047;29;20044;-80
2023/02/24 04:32:48;;;;;;;17.92;2.85;;;;;;;1.54;74.49;99988.56;10156046;29;20052;-80
2023/02/24 04:37:53;;;;;;;13.13;3.45;;;;;;;1.34;74.65;99976.31;10135281;29;20041;-81
2023/02/24 04:42:57;;;;;;;15.80;3.08;;;;;;;1.44;75.40;99972.28;10130642;29;20112;-80
2023/02/24 04:48:01;;;;;;;16.83;3.47;;;;;;;1.35;76.08;99970.97;10138162;29;20052;-80
2023/02/24 04:53:08;;;;;;;8.73;2.40;;;;;;;1.26;77.14;99959.03;10145269;29;20420;-80
2023/02/24 04:58:12;;;;;;;10.73;2.08;;;;;;;1.23;76.79;99960.97;10154823;29;20088;-80
2023/02/24 05:03:16;;;;;;;27.60;3.10;;;;;;;1.25;77.16;99944.06;10175065;29;20553;-81
2023/02/24 05:08:20;;;;;;;13.30;2.63;;;;;;;1.36;76.64;99930.31;10163771;29;20048;-80
2023/02/24 05:13:26;;;;;;;11.73;3.65;;;;;;;1.33;76.80;99927.81;10167959;29;20128;-81
2023/02/24 05:18:35;;;;;;;9.85;3.05;;;;;;;1.01;77.62;99924.13;10161100;29;20080;-79
2023/02/24 05:23:43;;;;;;;13.65;2.70;;;;;;;1.20;77.28;99906.41;10178322;29;20056;-80
2023/02/24 05:28:51;;;;;;;13.45;2.72;;;;;;;1.09;76.90;99898.16;10156749;29;20055;-81
2023/02/24 05:33:57;;;;;;;14.90;2.75;;;;;;;1.25;77.07;99885.00;10169946;29;20460;-81
2023/02/24 05:39:06;;;;;;;8.55;2.10;;;;;;;1.09;76.79;99895.50;10160169;29;20071;-80
2023/02/24 05:44:12;;;;;;;14.93;2.97;;;;;;;1.28;76.18;99884.84;10165465;29;20044;-80
2023/02/24 05:49:19;;;;;;;14.05;2.88;;;;;;;0.95;76.40;99884.75;10153255;29;20100;-81
2023/02/24 05:54:28;;;;;;;11.02;2.80;;;;;;;1.12;75.18;99875.97;10159927;29;20045;-81
2023/02/24 05:59:32;;;;;;;9.30;2.05;;;;;;;1.31;74.44;99860.03;10152862;29;20100;-79
2023/02/24 06:04:39;;;;;;;12.90;1.98;;;;;;;1.12;74.19;99850.38;10153716;29;20507;-79
2023/02/24 06:09:44;;;;;;;12.80;2.05;;;;;;;1.23;73.67;99847.19;10149123;29;20465;-83
2023/02/24 06:14:47;;;;;;;12.50;2.47;;;;;;;1.37;73.44;99825.31;10167207;29;20048;-81
2023/02/24 06:19:51;;;;;;;8.77;1.67;;;;;;;1.38;72.64;99822.59;10162149;29;20515;-81
2023/02/24 06:24:56;;;;;;;15.68;4.18;;;;;;;1.61;71.73;99809.94;10173506;29;20044;-80
2023/02/24 06:29:59;;;;;;;11.25;1.17;;;;;;;1.22;71.36;99801.34;10146158;29;20127;-82
2023/02/24 06:35:02;;;;;;;6.10;1.27;;;;;;;1.11;72.50;99800.19;10162511;29;20036;-80
2023/02/24 06:40:14;;;;;;;14.43;1.50;;;;;;;1.37;72.09;99797.06;10153542;29;20465;-82
2023/02/24 06:45:17;;;;;;;13.35;2.20;;;;;;;1.48;72.33;99777.94;10160077;29;20628;-81
2023/02/24 06:50:20;;;;;;;10.73;2.33;;;;;;;1.65;72.55;99790.31;10164300;29;20052;-80
2023/02/24 06:55:25;;;;;;;7.90;1.77;;;;;;;1.40;72.87;99781.03;10155852;29;20111;-81
2023/02/24 07:00:37;;;;;;;7.07;1.58;;;;;;;1.36;72.98;99775.97;10156172;29;20048;-81
2023/02/24 07:05:42;;;;;;;5.80;1.50;;;;;;;1.34;73.18;99767.25;10175612;29;20479;-81
2023/02/24 07:10:52;;;;;;;8.73;1.90;;;;;;;1.25;72.98;99758.00;10157406;29;20040;-81
2023/02/24 07:15:54;;;;;;;11.15;2.53;;;;;;;1.22;72.93;99760.81;10164618;29;20076;-81
2023/02/24 07:21:03;;;;;;;15.73;2.58;;;;;;;1.29;73.25;99746.34;10161072;29;20041;-82
2023/02/24 07:26:10;;;;;;;9.98;1.38;;;;;;;1.39;72.40;99744.03;10182743;29;20055;-81
2023/02/24 07:31:15;;;;;;;7.20;1.63;;;;;;;1.36;72.30;99737.13;10162840;29;20044;-81
2023/02/24 07:36:22;;;;;;;11.10;1.67;;;;;;;1.53;71.37;99730.06;10142725;29;20049;-80
2023/02/24 07:41:26;;;;;;;8.50;1.60;;;;;;;1.52;72.03;99716.00;10176128;29;20075;-79
2023/02/24 07:46:32;;;;;;;11.70;1.52;;;;;;;1.56;71.35;99703.44;10171063;29;20072;-81
2023/02/24 07:51:35;;;;;;;5.78;1.15;;;;;;;1.33;71.56;99696.75;10174239;29;20055;-81
2023/02/24 07:56:44;;;;;;;9.10;2.50;;;;;;;1.57;71.87;99691.94;10157339;29;20045;-80
2023/02/24 08:01:50;;;;;;;5.43;0.90;;;;;;;1.24;71.17;99683.06;10157867;29;20401;-80
2023/02/24 08:06:56;;;;;;;7.07;1.50;;;;;;;1.59;71.12;99676.78;10151808;29;20087;-79
2023/02/24 08:12:02;;;;;;;5.70;1.33;;;;;;;1.60;71.13;99676.72;10155010;29;20124;-80
2023/02/24 08:17:05;;;;;;;10.48;1.88;;;;;;;1.49;70.91;99669.38;10149691;29;20036;-80
2023/02/24 08:22:19;;;;;;;7.43;2.20;;;;;;;1.77;70.37;99657.25;10147754;29;20060;-80
2023/02/24 08:27:25;;;;;;;15.32;2.40;;;;;;;1.72;69.68;99633.66;10140797;29;20048;-80
2023/02/24 08:32:32;;;;;;;12.77;2.20;;;;;;;1.69;69.81;99633.84;10164931;29;20724;-81
2023/02/24 08:37:39;;;;;;;7.68;1.98;;;;;;;1.75;69.87;99629.97;10118262;29;20048;-80
2023/02/24 08:42:43;;;;;;;16.58;2.55;;;;;;;1.83;70.14;99611.88;10134840;29;20244;-79
2023/02/24 08:47:47;;;;;;;8.98;1.55;;;;;;;1.43;71.35;99616.78;10120411;29;20044;-80
2023/02/24 08:52:50;;;;;;;11.45;1.90;;;;;;;1.37;73.23;99622.41;10133914;29;20052;-78
2023/02/24 08:57:55;;;;;;;8.95;1.67;;;;;;;1.26;74.63;99600.94;10120144;29;20133;-80
2023/02/24 09:02:57;;;;;;;7.22;1.55;;;;;;;1.15;75.73;99598.03;10137677;29;20744;-81
2023/02/24 09:08:00;;;;;;;1.80;0.80;;;;;;;1.35;76.70;99603.13;10139912;29;20049;-79
2023/02/24 09:13:07;;;;;;;4.93;1.40;;;;;;;1.05;77.52;99572.09;10161543;28;20056;-81
2023/02/24 09:18:13;;;;;;;9.43;2.13;;;;;;;1.24;78.37;99581.69;10151012;29;21642;-80
2023/02/24 09:23:19;;;;;;;11.43;1.80;;;;;;;1.09;78.39;99558.72;10150258;29;20092;-80
2023/02/24 09:28:25;;;;;;;9.68;3.17;;;;;;;0.74;81.00;99570.28;10139117;29;20614;-81
2023/02/24 09:33:37;;;;;;;5.18;1.65;;;;;;;0.53;82.64;99542.34;10153459;29;20132;-81
2023/02/24 09:44:06;;;;;;;14.35;2.63;;;;;;;0.86;83.85;99536.19;10134309;29;20793;-81
2023/02/24 09:49:16;;;;;;;7.40;1.58;;;;;;;0.65;84.41;99546.94;10152704;29;20059;-81
2023/02/24 09:54:23;;;;;;;9.95;2.47;;;;;;;0.79;83.95;99540.91;10168442;29;20052;-80
2023/02/24 09:59:35;;;;;;;9.57;2.28;;;;;;;0.59;85.25;99527.00;10164744;29;20050;-82
2023/02/24 10:04:52;;;;;;;17.75;3.67;;;;;;;0.43;86.03;99510.25;10141504;29;20672;-82
2023/02/24 10:10:18;;;;;;;6.43;3.58;;;;;;;0.88;85.13;99494.63;10143743;29;20080;-82
2023/02/24 10:20:52;;;;;;;6.75;1.83;;;;;;;0.79;84.60;99488.91;10126405;29;20065;-82
2023/02/24 10:26:02;;;;;;;10.05;1.75;;;;;;;0.58;86.81;99480.38;10134277;29;20149;-82
2023/02/24 10:31:23;;;;;;;7.93;2.50;;;;;;;0.79;86.66;99458.97;10146518;29;20059;-82
2023/02/24 10:36:34;;;;;;;10.57;2.10;;;;;;;0.84;86.27;99462.22;10136647;29;20052;-82
2023/02/24 10:41:48;;;;;;;5.18;2.03;;;;;;;0.83;86.05;99452.59;10154475;29;20044;-82
2023/02/24 10:47:11;;;;;;;7.68;3.17;;;;;;;0.89;86.50;99449.59;10136086;29;20052;-83
2023/02/24 10:52:32;;;;;;;4.03;1.85;;;;;;;0.66;87.38;99440.31;10133493;29;20076;-83
2023/02/24 10:57:48;;;;;;;7.22;2.75;;;;;;;0.96;86.27;99429.81;10157650;29;20685;-82
2023/02/24 11:03:09;;;;;;;7.68;3.30;;;;;;;1.05;86.05;99408.13;10155555;29;20044;-82
2023/02/24 11:08:35;;;;;;;10.73;4.53;;;;;;;1.09;85.98;99390.28;10140855;29;20056;-81
2023/02/24 11:19:00;;;;;;;11.90;4.80;;;;;;;0.81;87.37;99367.22;10083879;29;20524;-82
2023/02/24 11:24:18;;;;;;;12.25;5.65;;;;;;;0.72;87.50;99358.00;10107522;29;20617;-82
2023/02/24 11:29:35;;;;;;;13.93;7.68;;;;;;;0.79;87.91;99355.84;10128237;29;20067;-80
2023/02/24 11:34:48;;;;;;;14.25;7.05;;;;;;;0.63;88.75;99328.59;10165959;29;20112;-81
2023/02/24 11:39:58;;;;;;;13.95;7.82;;;;;;;0.60;87.51;99309.34;10119507;29;20048;-81
2023/02/24 11:45:07;;;;;;;6.20;4.75;;;;;;;0.53;96.98;99315.91;10147856;29;20055;-82
2023/02/24 11:50:25;;;;;;;13.77;8.40;;;;;;;0.91;90.02;99291.72;10154429;29;20059;-83
2023/02/24 11:55:34;;;;;;;9.10;6.05;;;;;;;0.55;89.73;99297.31;10153107;29;20076;-82
2023/02/24 12:00:51;;;;;;;13.90;6.00;;;;;;;0.73;89.41;99274.28;10122899;29;20101;-81
2023/02/24 12:06:03;;;;;;;10.45;6.00;;;;;;;0.79;89.35;99271.25;10134286;29;20056;-80
2023/02/24 12:11:13;;;;;;;12.48;6.63;;;;;;;0.93;89.15;99275.75;10153348;29;20516;-81
2023/02/24 12:16:22;;;;;;;10.18;6.85;;;;;;;0.70;89.96;99258.59;10145904;29;20123;-81
2023/02/24 12:21:33;;;;;;;7.90;5.72;;;;;;;0.45;91.66;99248.59;10133159;29;20048;-81
2023/02/24 12:26:46;;;;;;;10.48;7.78;;;;;;;0.84;89.97;99245.41;10155951;29;20056;-81
2023/02/24 12:32:01;;;;;;;10.30;7.88;;;;;;;0.60;90.27;99242.41;10128733;29;20064;-82
2023/02/24 12:37:26;;;;;;;12.00;5.70;;;;;;;0.54;91.11;99248.91;10140616;29;20040;-83
2023/02/24 12:42:37;;;;;;;10.25;8.43;;;;;;;0.34;93.16;99226.28;10162278;29;20056;-82
2023/02/24 12:47:49;;;;;;;10.70;8.82;;;;;;;0.24;92.00;99217.16;10156751;28;20051;-83
2023/02/24 12:53:01;;;;;;;11.30;6.20;;;;;;;0.59;90.40;99215.13;10149953;29;20498;-82
2023/02/24 12:58:12;;;;;;;12.27;9.52;;;;;;;0.42;90.05;99209.13;10165538;29;20355;-82
2023/02/24 13:03:35;;;;;;;11.98;8.73;;;;;;;0.54;91.14;99213.69;10144839;29;20056;-83
2023/02/24 13:08:48;;;;;;;10.13;7.38;;;;;;;0.82;89.33;99194.41;10122002;29;20128;-84
2023/02/24 13:13:59;;;;;;;10.98;9.05;;;;;;;0.93;89.21;99199.91;10131522;29;20111;-84
2023/02/24 13:19:16;;;;;;;5.68;4.43;;;;;;;0.72;90.27;99193.28;10141301;29;20052;-85
2023/02/24 13:24:23;;;;;;;8.95;5.13;;;;;;;0.84;89.35;99172.22;10124367;29;20591;-82
2023/02/24 13:29:26;;;;;;;16.30;10.65;;;;;;;0.90;90.28;99173.66;10137848;29;20056;-84
2023/02/24 13:34:32;;;;;;;15.05;11.80;;;;;;;0.96;90.88;99167.13;10133734;29;20040;-84
2023/02/24 13:39:43;;;;;;;14.40;9.73;;;;;;;0.99;90.30;99165.19;10124218;29;20100;-81
2023/02/24 13:44:48;;;;;;;11.30;9.02;;;;;;;0.64;90.84;99151.44;10126501;29;20183;-82
2023/02/24 13:50:04;;;;;;;11.85;10.30;;;;;;;0.98;89.94;99152.88;10116284;29;20071;-83
2023/02/24 13:55:23;;;;;;;19.55;11.15;;;;;;;1.04;90.97;99134.03;10127233;29;21775;-82
2023/02/24 14:00:51;;;;;;;13.70;8.63;;;;;;;0.97;92.20;99116.81;10122702;29;20048;-82
2023/02/24 14:05:56;;;;;;;21.80;13.18;;;;;;;1.21;90.11;99109.16;10138623;29;20048;-80
2023/02/24 14:11:02;;;;;;;20.02;13.00;;;;;;;1.14;91.21;99102.53;10131146;29;20468;-82
2023/02/24 14:16:08;;;;;;;14.30;9.77;;;;;;;1.24;90.73;99100.19;10127620;29;20684;-80
2023/02/24 14:21:21;;;;;;;16.52;10.25;;;;;;;1.82;89.37;99079.72;10177898;29;20056;-79
2023/02/24 14:26:25;;;;;;;10.38;5.15;;;;;;;1.25;91.44;99086.84;10179662;29;20503;-80
2023/02/24 14:31:29;;;;;;;11.95;8.35;;;;;;;1.74;89.26;99077.56;10164808;29;20070;-80
2023/02/24 14:36:37;;;;;;;10.60;5.85;;;;;;;1.24;90.97;99069.28;10192904;29;20078;-78
2023/02/24 14:41:42;;;;;;;11.20;5.03;;;;;;;1.42;90.45;99067.25;10170966;29;20055;-79
2023/02/24 14:46:49;;;;;;;14.48;5.55;;;;;;;1.31;91.40;99064.44;10157737;29;20662;-80
2023/02/24 14:51:57;;;;;;;10.98;6.65;;;;;;;1.64;89.93;99058.78;10146910;29;20533;-80
2023/02/24 14:57:02;;;;;;;11.98;6.00;;;;;;;1.59;91.43;99058.25;10160824;29;20633;-81
2023/02/24 15:02:15;;;;;;;13.65;8.90;;;;;;;1.68;91.07;99043.56;10158934;29;20048;-81
2023/02/24 15:07:23;;;;;;;15.35;8.73;;;;;;;1.91;89.96;99037.56;10137942;29;20075;-81
2023/02/24 15:12:32;;;;;;;15.00;5.47;;;;;;;1.74;90.66;99045.78;10126941;29;20519;-82
2023/02/24 15:17:39;;;;;;;8.80;5.03;;;;;;;1.85;90.87;99030.03;10128632;29;20048;-81
2023/02/24 15:22:48;;;;;;;15.70;9.98;;;;;;;2.05;90.04;99011.97;10157607;29;20052;-81
2023/02/24 15:27:55;;;;;;;20.23;7.38;;;;;;;1.69;91.54;99014.31;10142362;29;20190;-79
2023/02/24 15:33:12;;;;;;;12.88;8.20;;;;;;;1.89;91.42;99015.66;10135714;29;20048;-82
2023/02/24 15:38:22;;;;;;;15.23;10.07;;;;;;;1.73;92.52;99004.41;10130848;29;20054;-84
2023/02/24 15:43:35;;;;;;;20.17;10.95;;;;;;;1.98;92.58;98989.50;10124993;29;20056;-83
2023/02/24 15:48:42;;;;;;;16.45;9.60;;;;;;;2.25;92.03;98986.75;10112136;29;20056;-84
2023/02/24 15:53:45;;;;;;;25.52;10.18;;;;;;;2.30;91.79;98968.75;10127238;29;20052;-85
2023/02/24 15:58:49;;;;;;;14.77;6.32;;;;;;;2.22;92.11;98971.91;10115074;29;20823;-83
2023/02/24 16:03:52;;;;;;;16.58;8.98;;;;;;;2.59;91.92;98957.00;10145616;29;20119;-82
2023/02/24 16:08:56;;;;;;;12.05;6.95;;;;;;;2.34;90.98;98960.50;10163134;29;20103;-81
2023/02/24 16:14:00;;;;;;;10.00;6.82;;;;;;;2.33;91.60;98963.22;10133642;29;20508;-81
2023/02/24 16:19:03;;;;;;;15.80;9.45;;;;;;;2.37;90.95;98952.31;10167419;29;20033;-79
2023/02/24 16:24:06;;;;;;;17.35;9.40;;;;;;;2.43;90.87;98935.13;10141824;28;20516;-81
2023/02/24 16:29:14;;;;;;;22.30;9.93;;;;;;;2.53;90.72;98943.31;10138615;29;20052;-82
2023/02/24 16:34:17;;;;;;;12.98;7.85;;;;;;;2.67;89.62;98945.84;10172766;29;20089;-81
2023/02/24 16:39:20;;;;;;;18.27;9.82;;;;;;;2.62;89.52;98942.69;10135746;29;20147;-82
2023/02/24 16:44:24;;;;;;;19.15;10.75;;;;;;;2.62;89.76;98926.75;10119732;29;20052;-79
2023/02/24 16:49:27;;;;;;;18.17;8.52;;;;;;;2.61;89.37;98925.09;10132894;29;20080;-78
2023/02/24 16:54:30;;;;;;;15.27;8.43;;;;;;;2.76;89.47;98929.28;10149448;29;20041;-81
2023/02/24 16:59:34;;;;;;;22.00;8.27;;;;;;;2.85;89.09;98927.75;10158769;29;20187;-81
2023/02/24 17:04:37;;;;;;;17.92;10.25;;;;;;;2.81;89.17;98928.94;10141929;29;20695;-80
2023/02/24 17:09:40;;;;;;;19.40;9.02;;;;;;;2.79;89.29;98934.34;10152651;29;20067;-81
2023/02/24 17:14:44;;;;;;;11.35;7.90;;;;;;;2.47;91.60;98927.81;10153593;29;20085;-82
2023/02/24 17:19:47;;;;;;;21.33;10.85;;;;;;;2.86;91.23;98934.78;10141454;29;20060;-83
2023/02/24 17:24:50;;;;;;;18.33;10.57;;;;;;;2.29;94.07;98938.75;10116421;29;20049;-83
2023/02/24 17:29:54;;;;;;;22.88;11.13;;;;;;;2.75;93.56;98935.53;10121682;29;20577;-84
2023/02/24 17:34:58;;;;;;;18.48;9.15;;;;;;;2.49;95.35;98944.47;10111235;29;20617;-83
2023/02/24 17:40:01;;;;;;;12.80;8.07;;;;;;;2.05;97.94;98957.19;10146151;29;20056;-80
2023/02/24 17:45:11;;;;;;;14.82;7.32;;;;;;;2.22;96.69;98949.88;10131450;29;20069;-81
2023/02/24 17:50:15;;;;;;;8.27;4.88;;;;;;;2.46;94.92;98964.06;10147582;29;20119;-80
2023/02/24 17:55:18;;;;;;;7.80;4.03;;;;;;;2.65;94.50;98962.81;10128947;29;20180;-81
2023/02/24 18:00:23;;;;;;;6.28;3.90;;;;;;;2.92;92.62;98970.63;10138515;29;20052;-82
2023/02/24 18:05:26;;;;;;;12.88;3.67;;;;;;;3.10;91.79;98977.25;10160120;29;20045;-80
2023/02/24 18:10:28;;;;;;;8.80;2.50;;;;;;;2.79;91.81;98963.53;10152847;29;20061;-82
2023/02/24 18:15:34;;;;;;;6.68;2.20;;;;;;;3.31;90.46;98971.34;10145335;29;20063;-82
2023/02/24 18:20:36;;;;;;;6.05;1.77;;;;;;;3.06;90.82;98970.47;10161252;29;20056;-81
2023/02/24 18:25:39;;;;;;;13.35;1.80;;;;;;;3.08;90.98;98978.31;10134666;29;20174;-81
2023/02/24 18:30:44;;;;;;;4.57;1.63;;;;;;;3.45;89.40;98981.78;10154092;29;20064;-81
2023/02/24 18:35:46;;;;;;;20.13;2.53;;;;;;;2.80;90.23;98975.00;10137408;29;20060;-78
2023/02/24 18:40:57;;;;;;;13.57;1.83;;;;;;;3.36;88.81;98985.13;10141018;29;21298;-78
2023/02/24 18:46:03;;;;;;;8.75;2.03;;;;;;;3.00;88.05;98985.03;10154207;29;20081;-80
2023/02/24 18:51:06;;;;;;;17.05;2.55;;;;;;;2.97;88.93;98987.06;10121314;29;20049;-80
2023/02/24 18:56:12;;;;;;;13.35;2.17;;;;;;;2.75;90.00;98988.56;10137103;29;20137;-80
2023/02/24 19:01:19;;;;;;;13.82;2.25;;;;;;;2.83;90.17;98991.53;10121055;29;20553;-81
2023/02/24 19:06:24;;;;;;;20.13;2.22;;;;;;;2.93;89.80;98988.22;10137620;29;20685;-80
2023/02/24 19:11:29;;;;;;;23.98;2.90;;;;;;;3.10;88.64;98989.66;10116564;29;20436;-80
2023/02/24 19:16:35;;;;;;;16.27;2.45;;;;;;;3.35;88.34;99004.66;10120471;29;20044;-79
2023/02/24 19:21:38;;;;;;;12.75;2.35;;;;;;;3.17;87.99;99005.03;10116278;29;21189;-80
2023/02/24 19:26:41;;;;;;;12.65;1.73;;;;;;;2.68;88.35;99005.88;10124437;29;20123;-82
2023/02/24 19:31:45;;;;;;;17.52;3.13;;;;;;;2.75;88.78;98995.69;10112789;29;20056;-80
2023/02/24 19:42:19;;;;;;;12.45;2.45;;;;;;;2.34;91.51;99002.88;10341916;23;20009;-79
2023/02/24 19:47:23;;;;;;;7.80;1.88;;;;;;;2.42;89.94;99006.81;10183007;29;20200;-79
2023/02/24 19:52:26;;;;;;;14.60;2.80;;;;;;;2.38;90.14;99020.25;10175505;29;20052;-81
2023/02/24 19:57:28;;;;;;;14.50;2.90;;;;;;;2.38;89.85;99028.22;10175758;29;20047;-78
2023/02/24 20:02:33;;;;;;;20.27;2.40;;;;;;;2.73;87.72;99022.31;10167836;29;20726;-80
2023/02/24 20:07:36;;;;;;;19.60;3.00;;;;;;;2.18;88.58;99026.09;10170945;29;20049;-77
2023/02/24 20:12:39;;;;;;;20.23;4.75;;;;;;;2.38;87.82;99025.56;10174373;29;20036;-79
2023/02/24 20:17:43;;;;;;;17.63;3.20;;;;;;;2.24;87.28;99033.59;10178053;29;20426;-78
2023/02/24 20:22:46;;;;;;;19.08;2.85;;;;;;;2.15;87.37;99023.66;10172349;29;20497;-78
2023/02/24 20:27:48;;;;;;;22.27;3.00;;;;;;;1.95;87.48;99035.59;10181541;29;20044;-78
2023/02/24 20:32:53;;;;;;;25.75;4.35;;;;;;;2.17;87.05;99038.50;10213301;29;20053;-79
2023/02/24 20:37:56;;;;;;;19.00;3.47;;;;;;;2.12;87.07;99037.09;10187224;29;20095;-80
2023/02/24 20:42:58;;;;;;;20.77;3.70;;;;;;;2.66;84.91;99044.03;10191761;29;20092;-80
2023/02/24 20:48:03;;;;;;;20.30;3.90;;;;;;;2.43;84.34;99042.97;10183338;29;20047;-78
2023/02/24 20:53:06;;;;;;;19.30;2.67;;;;;;;2.30;84.53;99035.84;10188633;29;20040;-79
2023/02/24 20:58:09;;;;;;;22.00;3.67;;;;;;;2.27;84.14;99035.19;10185924;29;20056;-79
2023/02/24 21:03:13;;;;;;;17.42;3.45;;;;;;;2.29;84.18;99044.75;10189542;29;20048;-79
2023/02/24 21:08:16;;;;;;;18.95;3.42;;;;;;;2.16;84.45;99046.53;10188160;29;20059;-79
2023/02/24 21:13:20;;;;;;;27.15;3.35;;;;;;;2.38;83.15;99046.75;10182632;29;20048;-80
2023/02/24 21:18:24;;;;;;;19.67;2.55;;;;;;;1.93;83.07;99046.28;10179558;29;20044;-79
2023/02/24 21:23:27;;;;;;;26.40;3.92;;;;;;;2.65;81.31;99045.00;10188168;29;20036;-79
2023/02/24 21:28:30;;;;;;;25.75;3.28;;;;;;;2.35;81.83;99049.63;10188978;29;20044;-79
2023/02/24 21:33:34;;;;;;;17.33;2.65;;;;;;;2.36;80.39;99042.53;10169868;29;20103;-79
2023/02/24 21:38:38;;;;;;;18.33;3.60;;;;;;;2.20;82.03;99037.44;10142989;29;20044;-79
2023/02/24 21:43:40;;;;;;;24.40;4.20;;;;;;;2.35;80.97;99041.66;10163363;29;20049;-79
2023/02/24 21:48:45;;;;;;;27.10;2.80;;;;;;;2.11;82.25;99048.63;10141837;29;20144;-79
2023/02/24 21:53:48;;;;;;;14.55;3.03;;;;;;;2.37;80.56;99044.22;10148355;29;20044;-78
2023/02/24 21:58:53;;;;;;;19.05;5.32;;;;;;;2.09;81.44;99038.16;10148471;29;20071;-79
2023/02/24 22:04:00;;;;;;;18.63;3.42;;;;;;;2.10;81.40;99047.78;10141743;29;20092;-80
2023/02/24 22:09:06;;;;;;;16.52;2.72;;;;;;;2.14;81.39;99054.59;10157491;29;20039;-80
2023/02/24 22:14:12;;;;;;;21.25;3.38;;;;;;;2.01;81.32;99052.88;10141823;29;20048;-79
2023/02/24 22:19:17;;;;;;;17.25;4.13;;;;;;;1.85;82.46;99060.97;10152444;29;20043;-79
2023/02/24 22:24:20;;;;;;;26.17;3.88;;;;;;;2.03;81.78;99064.19;10149903;29;20072;-80
2023/02/24 22:29:23;;;;;;;24.17;3.42;;;;;;;2.24;81.69;99060.09;10142926;29;20060;-79
2023/02/24 22:34:27;;;;;;;25.98;3.88;;;;;;;2.27;80.74;99064.34;10167617;29;21820;-78
2023/02/24 22:39:30;;;;;;;33.00;5.32;;;;;;;1.85;81.66;99053.03;10158375;29;20048;-79
2023/02/24 22:44:33;;;;;;;25.23;4.03;;;;;;;1.67;82.35;99042.72;10157609;29;20120;-78
2023/02/24 22:49:37;;;;;;;16.60;3.05;;;;;;;1.92;82.04;99059.59;10155249;29;20400;-80
2023/02/24 22:54:40;;;;;;;25.90;3.33;;;;;;;2.03;81.97;99067.72;10151183;29;20048;-79
2023/02/24 22:59:43;;;;;;;20.73;2.83;;;;;;;1.87;83.04;99069.69;10158036;29;20051;-80
2023/02/24 23:04:47;;;;;;;17.10;3.58;;;;;;;1.66;84.62;99083.34;10155756;29;20054;-80
2023/02/24 23:09:52;;;;;;;23.23;3.55;;;;;;;1.82;85.42;99085.00;10148809;29;20073;-80
2023/02/24 23:14:55;;;;;;;14.82;3.00;;;;;;;1.64;87.55;99079.94;10153576;29;20111;-80
2023/02/24 23:19:59;;;;;;;22.52;2.80;;;;;;;1.95;86.15;99091.22;10187699;29;20052;-81
2023/02/24 23:25:02;;;;;;;21.70;3.78;;;;;;;1.82;85.61;99099.09;10180590;29;20499;-81
2023/02/24 23:30:07;;;;;;;17.77;3.95;;;;;;;1.83;85.96;99114.03;10189289;29;20076;-81
2023/02/24 23:35:14;;;;;;;29.08;3.63;;;;;;;1.76;86.35;99118.03;10190894;29;20181;-81
2023/02/24 23:40:24;;;;;;;29.55;4.15;;;;;;;1.75;85.72;99126.91;10193301;29;20452;-80
2023/02/24 23:45:27;;;;;;;25.02;4.22;;;;;;;2.02;85.46;99123.41;10174107;29;20052;-80
2023/02/24 23:50:31;;;;;;;23.48;2.92;;;;;;;1.55;85.90;99128.19;10163599;29;20044;-80
2023/02/24 23:55:35;;;;;;;22.10;3.75;;;;;;;1.91;84.98;99121.47;10173912;29;20056;-81
